sensor_id;sensor_type;location;lat;lon;timestamp;temperature;humidity
38514;DHT22;24282;48.400;10.808;2023-08-20T00:01:32;22.10;80.10
38514;DHT22;24282;48.400;10.808;2023-08-20T00:03:58;22.00;80.10
38514;DHT22;24282;48.400;10.808;2023-08-20T00:06:25;22.00;80.00
38514;DHT22;24282;48.400;10.808;2023-08-20T00:08:50;22.00;79.90
38514;DHT22;24282;48.400;10.808;2023-08-20T00:11:16;21.90;79.80
38514;DHT22;24282;48.400;10.808;2023-08-20T00:13:42;21.90;79.70
38514;DHT22;24282;48.400;10.808;2023-08-20T00:16:09;21.90;79.60
38514;DHT22;24282;48.400;10.808;2023-08-20T00:18:35;21.90;79.70
38514;DHT22;24282;48.400;10.808;2023-08-20T00:21:01;21.80;79.90
38514;DHT22;24282;48.400;10.808;2023-08-20T00:23:27;21.80;80.20
38514;DHT22;24282;48.400;10.808;2023-08-20T00:25:53;21.80;80.40
38514;DHT22;24282;48.400;10.808;2023-08-20T00:28:20;21.70;80.00
38514;DHT22;24282;48.400;10.808;2023-08-20T00:30:46;21.70;80.00
38514;DHT22;24282;48.400;10.808;2023-08-20T00:33:12;21.60;80.10
38514;DHT22;24282;48.400;10.808;2023-08-20T00:35:38;21.60;80.20
38514;DHT22;24282;48.400;10.808;2023-08-20T00:38:05;21.50;80.30
38514;DHT22;24282;48.400;10.808;2023-08-20T00:40:31;21.50;80.60
38514;DHT22;24282;48.400;10.808;2023-08-20T00:42:57;21.40;80.70
38514;DHT22;24282;48.400;10.808;2023-08-20T00:45:24;21.40;80.80
38514;DHT22;24282;48.400;10.808;2023-08-20T00:47:50;21.40;80.80
38514;DHT22;24282;48.400;10.808;2023-08-20T00:50:17;21.30;80.80
38514;DHT22;24282;48.400;10.808;2023-08-20T00:52:44;21.30;80.80
38514;DHT22;24282;48.400;10.808;2023-08-20T00:55:11;21.30;80.60
38514;DHT22;24282;48.400;10.808;2023-08-20T00:57:39;21.30;80.20
38514;DHT22;24282;48.400;10.808;2023-08-20T01:00:06;21.30;80.50
38514;DHT22;24282;48.400;10.808;2023-08-20T01:02:37;21.20;80.80
38514;DHT22;24282;48.400;10.808;2023-08-20T01:05:06;21.20;81.00
38514;DHT22;24282;48.400;10.808;2023-08-20T01:10:57;21.10;81.20
38514;DHT22;24282;48.400;10.808;2023-08-20T01:13:26;21.10;80.80
38514;DHT22;24282;48.400;10.808;2023-08-20T01:15:52;21.10;80.70
38514;DHT22;24282;48.400;10.808;2023-08-20T01:18:18;21.10;80.90
38514;DHT22;24282;48.400;10.808;2023-08-20T01:20:52;21.00;81.00
38514;DHT22;24282;48.400;10.808;2023-08-20T01:23:30;21.00;81.10
38514;DHT22;24282;48.400;10.808;2023-08-20T01:28:54;20.90;81.50
38514;DHT22;24282;48.400;10.808;2023-08-20T01:31:20;20.90;81.70
38514;DHT22;24282;48.400;10.808;2023-08-20T01:33:46;20.90;81.80
38514;DHT22;24282;48.400;10.808;2023-08-20T01:36:12;20.90;81.90
38514;DHT22;24282;48.400;10.808;2023-08-20T01:38:40;20.90;82.00
38514;DHT22;24282;48.400;10.808;2023-08-20T01:41:06;20.90;82.00
38514;DHT22;24282;48.400;10.808;2023-08-20T01:43:32;20.90;82.20
38514;DHT22;24282;48.400;10.808;2023-08-20T01:45:59;20.80;82.20
38514;DHT22;24282;48.400;10.808;2023-08-20T01:48:25;20.80;82.30
38514;DHT22;24282;48.400;10.808;2023-08-20T01:50:50;20.80;82.30
38514;DHT22;24282;48.400;10.808;2023-08-20T01:53:16;20.70;82.30
38514;DHT22;24282;48.400;10.808;2023-08-20T01:55:42;20.70;82.30
38514;DHT22;24282;48.400;10.808;2023-08-20T01:58:08;20.70;82.40
38514;DHT22;24282;48.400;10.808;2023-08-20T02:00:34;20.70;82.30
38514;DHT22;24282;48.400;10.808;2023-08-20T02:02:59;20.70;82.20
38514;DHT22;24282;48.400;10.808;2023-08-20T02:05:25;20.70;82.20
38514;DHT22;24282;48.400;10.808;2023-08-20T02:07:51;20.60;82.20
38514;DHT22;24282;48.400;10.808;2023-08-20T02:10:17;20.60;82.20
38514;DHT22;24282;48.400;10.808;2023-08-20T02:12:43;20.60;82.20
38514;DHT22;24282;48.400;10.808;2023-08-20T02:15:09;20.60;82.30
38514;DHT22;24282;48.400;10.808;2023-08-20T02:17:36;20.50;82.20
38514;DHT22;24282;48.400;10.808;2023-08-20T02:20:03;20.50;82.40
38514;DHT22;24282;48.400;10.808;2023-08-20T02:22:33;20.50;82.40
38514;DHT22;24282;48.400;10.808;2023-08-20T02:24:59;20.40;82.40
38514;DHT22;24282;48.400;10.808;2023-08-20T02:27:25;20.40;82.50
38514;DHT22;24282;48.400;10.808;2023-08-20T02:29:51;20.40;82.50
38514;DHT22;24282;48.400;10.808;2023-08-20T02:32:17;20.30;82.50
38514;DHT22;24282;48.400;10.808;2023-08-20T02:34:43;20.30;82.40
38514;DHT22;24282;48.400;10.808;2023-08-20T02:37:09;20.30;82.40
38514;DHT22;24282;48.400;10.808;2023-08-20T02:39:35;20.20;82.30
38514;DHT22;24282;48.400;10.808;2023-08-20T02:42:01;20.20;82.20
38514;DHT22;24282;48.400;10.808;2023-08-20T02:44:26;20.20;82.20
38514;DHT22;24282;48.400;10.808;2023-08-20T02:46:53;20.10;82.20
38514;DHT22;24282;48.400;10.808;2023-08-20T02:49:19;20.10;82.20
38514;DHT22;24282;48.400;10.808;2023-08-20T02:51:45;20.10;82.20
38514;DHT22;24282;48.400;10.808;2023-08-20T02:54:11;20.10;82.30
38514;DHT22;24282;48.400;10.808;2023-08-20T02:56:37;20.10;82.40
38514;DHT22;24282;48.400;10.808;2023-08-20T02:59:02;20.10;82.40
38514;DHT22;24282;48.400;10.808;2023-08-20T03:01:28;20.00;82.40
38514;DHT22;24282;48.400;10.808;2023-08-20T03:03:55;20.00;82.40
38514;DHT22;24282;48.400;10.808;2023-08-20T03:06:21;20.00;82.40
38514;DHT22;24282;48.400;10.808;2023-08-20T03:08:47;20.00;82.40
38514;DHT22;24282;48.400;10.808;2023-08-20T03:11:12;19.90;82.50
38514;DHT22;24282;48.400;10.808;2023-08-20T03:13:38;19.90;82.60
38514;DHT22;24282;48.400;10.808;2023-08-20T03:16:04;19.90;82.70
38514;DHT22;24282;48.400;10.808;2023-08-20T03:18:30;19.90;82.70
38514;DHT22;24282;48.400;10.808;2023-08-20T03:20:56;19.80;82.80
38514;DHT22;24282;48.400;10.808;2023-08-20T03:23:23;19.80;82.70
38514;DHT22;24282;48.400;10.808;2023-08-20T03:25:49;19.80;82.80
38514;DHT22;24282;48.400;10.808;2023-08-20T03:28:17;19.80;82.90
38514;DHT22;24282;48.400;10.808;2023-08-20T03:30:43;19.80;82.90
38514;DHT22;24282;48.400;10.808;2023-08-20T03:33:12;19.70;82.90
38514;DHT22;24282;48.400;10.808;2023-08-20T03:35:38;19.70;82.90
38514;DHT22;24282;48.400;10.808;2023-08-20T03:38:04;19.70;83.00
38514;DHT22;24282;48.400;10.808;2023-08-20T03:40:30;19.70;83.10
38514;DHT22;24282;48.400;10.808;2023-08-20T03:42:56;19.70;83.10
38514;DHT22;24282;48.400;10.808;2023-08-20T03:45:22;19.60;83.10
38514;DHT22;24282;48.400;10.808;2023-08-20T03:47:48;19.60;83.10
38514;DHT22;24282;48.400;10.808;2023-08-20T03:50:13;19.60;83.10
38514;DHT22;24282;48.400;10.808;2023-08-20T03:52:39;19.60;83.10
38514;DHT22;24282;48.400;10.808;2023-08-20T03:55:05;19.50;83.10
38514;DHT22;24282;48.400;10.808;2023-08-20T03:57:32;19.50;83.00
38514;DHT22;24282;48.400;10.808;2023-08-20T03:59:58;19.50;83.00
38514;DHT22;24282;48.400;10.808;2023-08-20T04:02:24;19.50;83.10
38514;DHT22;24282;48.400;10.808;2023-08-20T04:04:49;19.40;83.00
38514;DHT22;24282;48.400;10.808;2023-08-20T04:07:15;19.40;83.10
38514;DHT22;24282;48.400;10.808;2023-08-20T04:09:41;19.40;83.10
38514;DHT22;24282;48.400;10.808;2023-08-20T04:12:08;19.40;83.00
38514;DHT22;24282;48.400;10.808;2023-08-20T04:14:36;19.40;83.00
38514;DHT22;24282;48.400;10.808;2023-08-20T04:17:02;19.40;83.10
38514;DHT22;24282;48.400;10.808;2023-08-20T04:19:28;19.40;83.10
38514;DHT22;24282;48.400;10.808;2023-08-20T04:21:53;19.30;83.10
38514;DHT22;24282;48.400;10.808;2023-08-20T04:24:19;19.30;83.10
38514;DHT22;24282;48.400;10.808;2023-08-20T04:26:45;19.30;83.10
38514;DHT22;24282;48.400;10.808;2023-08-20T04:29:14;19.30;83.20
38514;DHT22;24282;48.400;10.808;2023-08-20T04:31:40;19.30;83.30
38514;DHT22;24282;48.400;10.808;2023-08-20T04:34:08;19.20;83.20
38514;DHT22;24282;48.400;10.808;2023-08-20T04:36:46;19.20;83.30
38514;DHT22;24282;48.400;10.808;2023-08-20T04:39:12;19.20;83.30
38514;DHT22;24282;48.400;10.808;2023-08-20T04:41:43;19.20;83.20
38514;DHT22;24282;48.400;10.808;2023-08-20T04:44:13;19.20;83.30
38514;DHT22;24282;48.400;10.808;2023-08-20T04:46:39;19.20;83.40
38514;DHT22;24282;48.400;10.808;2023-08-20T04:49:05;19.20;83.50
38514;DHT22;24282;48.400;10.808;2023-08-20T04:51:31;19.20;83.60
38514;DHT22;24282;48.400;10.808;2023-08-20T04:53:57;19.20;83.70
38514;DHT22;24282;48.400;10.808;2023-08-20T04:56:23;19.20;83.90
38514;DHT22;24282;48.400;10.808;2023-08-20T04:58:48;19.20;83.90
38514;DHT22;24282;48.400;10.808;2023-08-20T05:01:30;19.20;84.00
38514;DHT22;24282;48.400;10.808;2023-08-20T05:03:56;19.30;84.00
38514;DHT22;24282;48.400;10.808;2023-08-20T05:06:22;19.30;84.00
38514;DHT22;24282;48.400;10.808;2023-08-20T05:08:48;19.30;84.10
38514;DHT22;24282;48.400;10.808;2023-08-20T05:11:13;19.30;84.20
38514;DHT22;24282;48.400;10.808;2023-08-20T05:13:39;19.30;84.30
38514;DHT22;24282;48.400;10.808;2023-08-20T05:16:05;19.30;84.30
38514;DHT22;24282;48.400;10.808;2023-08-20T05:18:31;19.40;84.40
38514;DHT22;24282;48.400;10.808;2023-08-20T05:20:57;19.40;84.50
38514;DHT22;24282;48.400;10.808;2023-08-20T05:23:22;19.40;84.40
38514;DHT22;24282;48.400;10.808;2023-08-20T05:25:48;19.40;84.50
38514;DHT22;24282;48.400;10.808;2023-08-20T05:28:14;19.40;84.60
38514;DHT22;24282;48.400;10.808;2023-08-20T05:30:40;19.40;84.60
38514;DHT22;24282;48.400;10.808;2023-08-20T05:33:06;19.50;84.60
38514;DHT22;24282;48.400;10.808;2023-08-20T05:35:35;19.50;84.70
38514;DHT22;24282;48.400;10.808;2023-08-20T05:38:02;19.50;84.80
38514;DHT22;24282;48.400;10.808;2023-08-20T05:40:28;19.60;84.90
38514;DHT22;24282;48.400;10.808;2023-08-20T05:42:54;19.60;84.90
38514;DHT22;24282;48.400;10.808;2023-08-20T05:45:20;19.60;85.10
38514;DHT22;24282;48.400;10.808;2023-08-20T05:47:46;19.70;85.20
38514;DHT22;24282;48.400;10.808;2023-08-20T05:50:12;19.70;85.30
38514;DHT22;24282;48.400;10.808;2023-08-20T05:52:37;19.70;85.40
38514;DHT22;24282;48.400;10.808;2023-08-20T05:55:04;19.80;85.50
38514;DHT22;24282;48.400;10.808;2023-08-20T05:57:30;19.80;85.50
38514;DHT22;24282;48.400;10.808;2023-08-20T05:59:55;19.80;85.50
38514;DHT22;24282;48.400;10.808;2023-08-20T06:02:22;19.90;85.60
38514;DHT22;24282;48.400;10.808;2023-08-20T06:04:48;19.90;85.60
38514;DHT22;24282;48.400;10.808;2023-08-20T06:07:16;19.90;85.60
38514;DHT22;24282;48.400;10.808;2023-08-20T06:09:42;20.00;85.60
38514;DHT22;24282;48.400;10.808;2023-08-20T06:12:08;20.00;85.60
38514;DHT22;24282;48.400;10.808;2023-08-20T06:14:33;20.10;85.70
38514;DHT22;24282;48.400;10.808;2023-08-20T06:16:59;20.10;85.70
38514;DHT22;24282;48.400;10.808;2023-08-20T06:19:25;20.20;85.80
38514;DHT22;24282;48.400;10.808;2023-08-20T06:21:51;20.20;85.70
38514;DHT22;24282;48.400;10.808;2023-08-20T06:24:17;20.30;85.70
38514;DHT22;24282;48.400;10.808;2023-08-20T06:26:43;20.30;85.80
38514;DHT22;24282;48.400;10.808;2023-08-20T06:29:09;20.30;85.80
38514;DHT22;24282;48.400;10.808;2023-08-20T06:31:35;20.40;85.60
38514;DHT22;24282;48.400;10.808;2023-08-20T06:34:01;20.40;85.70
38514;DHT22;24282;48.400;10.808;2023-08-20T06:36:26;20.40;85.60
38514;DHT22;24282;48.400;10.808;2023-08-20T06:38:52;20.50;85.60
38514;DHT22;24282;48.400;10.808;2023-08-20T06:41:18;20.60;85.60
38514;DHT22;24282;48.400;10.808;2023-08-20T06:43:44;20.60;85.60
38514;DHT22;24282;48.400;10.808;2023-08-20T06:46:09;20.70;85.80
38514;DHT22;24282;48.400;10.808;2023-08-20T06:48:35;20.80;85.70
38514;DHT22;24282;48.400;10.808;2023-08-20T06:51:10;20.90;85.70
38514;DHT22;24282;48.400;10.808;2023-08-20T06:53:37;20.90;85.70
38514;DHT22;24282;48.400;10.808;2023-08-20T06:56:02;21.00;85.80
38514;DHT22;24282;48.400;10.808;2023-08-20T06:58:28;21.00;85.70
38514;DHT22;24282;48.400;10.808;2023-08-20T07:00:54;21.10;85.60
38514;DHT22;24282;48.400;10.808;2023-08-20T07:03:20;21.20;85.50
38514;DHT22;24282;48.400;10.808;2023-08-20T07:05:46;21.30;85.60
38514;DHT22;24282;48.400;10.808;2023-08-20T07:08:11;21.30;85.70
38514;DHT22;24282;48.400;10.808;2023-08-20T07:10:37;21.30;85.70
38514;DHT22;24282;48.400;10.808;2023-08-20T07:13:03;21.40;85.50
38514;DHT22;24282;48.400;10.808;2023-08-20T07:15:29;21.40;85.50
38514;DHT22;24282;48.400;10.808;2023-08-20T07:17:55;21.50;85.70
38514;DHT22;24282;48.400;10.808;2023-08-20T07:20:21;21.50;85.80
38514;DHT22;24282;48.400;10.808;2023-08-20T07:22:46;21.60;85.90
38514;DHT22;24282;48.400;10.808;2023-08-20T07:25:12;21.60;85.50
38514;DHT22;24282;48.400;10.808;2023-08-20T07:27:38;21.60;84.80
38514;DHT22;24282;48.400;10.808;2023-08-20T07:30:04;21.70;84.30
38514;DHT22;24282;48.400;10.808;2023-08-20T07:32:30;21.80;84.20
38514;DHT22;24282;48.400;10.808;2023-08-20T07:34:56;21.80;83.70
38514;DHT22;24282;48.400;10.808;2023-08-20T07:37:21;21.90;83.10
38514;DHT22;24282;48.400;10.808;2023-08-20T07:39:47;21.90;82.10
38514;DHT22;24282;48.400;10.808;2023-08-20T07:42:13;22.00;81.00
38514;DHT22;24282;48.400;10.808;2023-08-20T07:44:39;22.00;80.50
38514;DHT22;24282;48.400;10.808;2023-08-20T07:47:04;22.10;80.00
38514;DHT22;24282;48.400;10.808;2023-08-20T07:49:30;22.20;78.90
38514;DHT22;24282;48.400;10.808;2023-08-20T07:51:56;22.30;78.70
38514;DHT22;24282;48.400;10.808;2023-08-20T07:54:22;22.40;79.00
38514;DHT22;24282;48.400;10.808;2023-08-20T07:56:48;22.40;79.10
38514;DHT22;24282;48.400;10.808;2023-08-20T07:59:13;22.60;79.30
38514;DHT22;24282;48.400;10.808;2023-08-20T08:01:39;22.60;78.60
38514;DHT22;24282;48.400;10.808;2023-08-20T08:04:05;22.70;78.00
38514;DHT22;24282;48.400;10.808;2023-08-20T08:06:31;22.80;77.70
38514;DHT22;24282;48.400;10.808;2023-08-20T08:08:56;22.90;77.60
38514;DHT22;24282;48.400;10.808;2023-08-20T08:11:22;23.00;77.60
38514;DHT22;24282;48.400;10.808;2023-08-20T08:13:48;23.10;76.50
38514;DHT22;24282;48.400;10.808;2023-08-20T08:16:14;23.20;76.50
38514;DHT22;24282;48.400;10.808;2023-08-20T08:18:39;23.30;75.90
38514;DHT22;24282;48.400;10.808;2023-08-20T08:21:05;23.40;75.60
38514;DHT22;24282;48.400;10.808;2023-08-20T08:23:31;23.60;74.50
38514;DHT22;24282;48.400;10.808;2023-08-20T08:25:57;23.60;74.30
38514;DHT22;24282;48.400;10.808;2023-08-20T08:28:22;23.80;73.90
38514;DHT22;24282;48.400;10.808;2023-08-20T08:30:48;23.90;73.70
38514;DHT22;24282;48.400;10.808;2023-08-20T08:33:14;24.10;73.40
38514;DHT22;24282;48.400;10.808;2023-08-20T08:35:40;24.30;72.50
38514;DHT22;24282;48.400;10.808;2023-08-20T08:38:06;24.40;71.30
38514;DHT22;24282;48.400;10.808;2023-08-20T08:40:33;24.60;71.30
38514;DHT22;24282;48.400;10.808;2023-08-20T08:43:00;24.80;71.30
38514;DHT22;24282;48.400;10.808;2023-08-20T08:45:27;24.90;70.60
38514;DHT22;24282;48.400;10.808;2023-08-20T08:47:54;25.10;69.20
38514;DHT22;24282;48.400;10.808;2023-08-20T08:50:21;25.30;68.00
38514;DHT22;24282;48.400;10.808;2023-08-20T08:52:47;25.60;68.40
38514;DHT22;24282;48.400;10.808;2023-08-20T08:55:16;25.80;68.50
38514;DHT22;24282;48.400;10.808;2023-08-20T08:57:42;26.00;68.00
38514;DHT22;24282;48.400;10.808;2023-08-20T09:00:08;26.20;66.10
38514;DHT22;24282;48.400;10.808;2023-08-20T09:02:34;26.30;65.20
38514;DHT22;24282;48.400;10.808;2023-08-20T09:05:00;26.50;63.50
38514;DHT22;24282;48.400;10.808;2023-08-20T09:07:25;26.70;63.50
38514;DHT22;24282;48.400;10.808;2023-08-20T09:09:58;26.90;63.40
38514;DHT22;24282;48.400;10.808;2023-08-20T09:12:25;27.10;63.70
38514;DHT22;24282;48.400;10.808;2023-08-20T09:14:52;27.30;64.30
38514;DHT22;24282;48.400;10.808;2023-08-20T09:17:19;27.40;62.10
38514;DHT22;24282;48.400;10.808;2023-08-20T09:19:46;27.50;60.80
38514;DHT22;24282;48.400;10.808;2023-08-20T09:22:13;27.70;61.50
38514;DHT22;24282;48.400;10.808;2023-08-20T09:24:41;27.80;62.10
38514;DHT22;24282;48.400;10.808;2023-08-20T09:27:08;27.90;63.30
38514;DHT22;24282;48.400;10.808;2023-08-20T09:32:14;28.10;56.40
38514;DHT22;24282;48.400;10.808;2023-08-20T09:34:40;28.30;56.40
38514;DHT22;24282;48.400;10.808;2023-08-20T09:37:11;28.30;55.80
38514;DHT22;24282;48.400;10.808;2023-08-20T09:39:37;28.50;56.90
38514;DHT22;24282;48.400;10.808;2023-08-20T09:42:10;28.60;58.20
38514;DHT22;24282;48.400;10.808;2023-08-20T09:44:38;28.80;57.40
38514;DHT22;24282;48.400;10.808;2023-08-20T09:47:12;28.80;55.30
38514;DHT22;24282;48.400;10.808;2023-08-20T09:49:43;28.90;53.40
38514;DHT22;24282;48.400;10.808;2023-08-20T09:52:11;28.90;52.90
38514;DHT22;24282;48.400;10.808;2023-08-20T09:54:45;29.10;53.60
38514;DHT22;24282;48.400;10.808;2023-08-20T09:57:37;29.20;51.80
38514;DHT22;24282;48.400;10.808;2023-08-20T10:00:04;29.30;51.80
38514;DHT22;24282;48.400;10.808;2023-08-20T10:02:41;29.30;52.70
38514;DHT22;24282;48.400;10.808;2023-08-20T10:05:09;29.50;52.90
38514;DHT22;24282;48.400;10.808;2023-08-20T10:07:35;29.60;53.10
38514;DHT22;24282;48.400;10.808;2023-08-20T10:10:03;29.70;54.30
38514;DHT22;24282;48.400;10.808;2023-08-20T10:12:30;29.80;55.40
38514;DHT22;24282;48.400;10.808;2023-08-20T10:14:57;29.80;54.30
38514;DHT22;24282;48.400;10.808;2023-08-20T10:17:24;29.90;53.00
38514;DHT22;24282;48.400;10.808;2023-08-20T10:19:53;30.00;51.70
38514;DHT22;24282;48.400;10.808;2023-08-20T10:22:20;30.00;51.90
38514;DHT22;24282;48.400;10.808;2023-08-20T10:24:52;30.10;52.40
38514;DHT22;24282;48.400;10.808;2023-08-20T10:27:32;30.20;51.80
38514;DHT22;24282;48.400;10.808;2023-08-20T10:29:59;30.20;52.00
38514;DHT22;24282;48.400;10.808;2023-08-20T10:32:48;30.30;52.80
38514;DHT22;24282;48.400;10.808;2023-08-20T10:35:18;30.30;52.90
38514;DHT22;24282;48.400;10.808;2023-08-20T10:38:06;30.40;52.40
38514;DHT22;24282;48.400;10.808;2023-08-20T10:43:27;30.50;49.20
38514;DHT22;24282;48.400;10.808;2023-08-20T10:48:36;30.60;46.40
38514;DHT22;24282;48.400;10.808;2023-08-20T10:51:25;30.60;47.90
38514;DHT22;24282;48.400;10.808;2023-08-20T10:56:46;30.80;50.20
38514;DHT22;24282;48.400;10.808;2023-08-20T10:59:55;30.80;49.70
38514;DHT22;24282;48.400;10.808;2023-08-20T11:02:12;30.80;49.20
38514;DHT22;24282;48.400;10.808;2023-08-20T11:04:40;30.80;48.60
38514;DHT22;24282;48.400;10.808;2023-08-20T11:07:06;30.80;46.30
38514;DHT22;24282;48.400;10.808;2023-08-20T11:09:33;30.90;47.70
38514;DHT22;24282;48.400;10.808;2023-08-20T11:11:59;30.90;49.10
38514;DHT22;24282;48.400;10.808;2023-08-20T11:14:25;30.90;50.00
38514;DHT22;24282;48.400;10.808;2023-08-20T11:16:51;30.90;49.60
38514;DHT22;24282;48.400;10.808;2023-08-20T11:19:22;30.90;48.80
38514;DHT22;24282;48.400;10.808;2023-08-20T11:21:48;30.90;46.90
38514;DHT22;24282;48.400;10.808;2023-08-20T11:24:14;31.00;47.20
38514;DHT22;24282;48.400;10.808;2023-08-20T11:26:40;31.10;44.80
38514;DHT22;24282;48.400;10.808;2023-08-20T11:29:08;31.20;46.10
38514;DHT22;24282;48.400;10.808;2023-08-20T11:31:35;31.20;47.90
38514;DHT22;24282;48.400;10.808;2023-08-20T11:34:03;31.30;49.70
38514;DHT22;24282;48.400;10.808;2023-08-20T11:36:29;31.30;48.00
38514;DHT22;24282;48.400;10.808;2023-08-20T11:38:55;31.30;48.00
38514;DHT22;24282;48.400;10.808;2023-08-20T11:41:22;31.40;45.60
38514;DHT22;24282;48.400;10.808;2023-08-20T11:43:48;31.50;46.00
38514;DHT22;24282;48.400;10.808;2023-08-20T11:46:17;31.50;46.90
38514;DHT22;24282;48.400;10.808;2023-08-20T11:49:03;31.60;48.10
38514;DHT22;24282;48.400;10.808;2023-08-20T11:51:30;31.60;47.70
38514;DHT22;24282;48.400;10.808;2023-08-20T11:53:57;31.70;46.60
38514;DHT22;24282;48.400;10.808;2023-08-20T11:56:23;31.70;46.00
38514;DHT22;24282;48.400;10.808;2023-08-20T11:58:52;31.80;46.60
38514;DHT22;24282;48.400;10.808;2023-08-20T12:01:18;31.80;46.10
38514;DHT22;24282;48.400;10.808;2023-08-20T12:03:44;31.90;43.90
38514;DHT22;24282;48.400;10.808;2023-08-20T12:06:21;32.00;44.10
38514;DHT22;24282;48.400;10.808;2023-08-20T12:08:48;32.00;46.20
38514;DHT22;24282;48.400;10.808;2023-08-20T12:11:14;32.10;43.30
38514;DHT22;24282;48.400;10.808;2023-08-20T12:13:40;32.20;43.90
38514;DHT22;24282;48.400;10.808;2023-08-20T12:16:06;32.30;44.50
38514;DHT22;24282;48.400;10.808;2023-08-20T12:18:32;32.30;44.20
38514;DHT22;24282;48.400;10.808;2023-08-20T12:20:58;32.30;43.60
38514;DHT22;24282;48.400;10.808;2023-08-20T12:23:24;32.30;43.70
38514;DHT22;24282;48.400;10.808;2023-08-20T12:25:50;32.40;43.50
38514;DHT22;24282;48.400;10.808;2023-08-20T12:28:16;32.50;40.40
38514;DHT22;24282;48.400;10.808;2023-08-20T12:30:43;32.60;39.30
38514;DHT22;24282;48.400;10.808;2023-08-20T12:33:09;32.60;39.50
38514;DHT22;24282;48.400;10.808;2023-08-20T12:35:36;32.70;40.80
38514;DHT22;24282;48.400;10.808;2023-08-20T12:38:03;32.80;42.70
38514;DHT22;24282;48.400;10.808;2023-08-20T12:40:29;32.90;43.90
38514;DHT22;24282;48.400;10.808;2023-08-20T12:42:55;32.90;43.40
38514;DHT22;24282;48.400;10.808;2023-08-20T12:45:21;33.00;41.00
38514;DHT22;24282;48.400;10.808;2023-08-20T12:47:47;33.00;42.10
38514;DHT22;24282;48.400;10.808;2023-08-20T12:50:12;33.00;41.80
38514;DHT22;24282;48.400;10.808;2023-08-20T12:52:40;33.10;40.80
38514;DHT22;24282;48.400;10.808;2023-08-20T12:55:06;33.10;42.90
38514;DHT22;24282;48.400;10.808;2023-08-20T12:57:34;33.10;43.00
38514;DHT22;24282;48.400;10.808;2023-08-20T13:00:02;33.00;38.90
38514;DHT22;24282;48.400;10.808;2023-08-20T13:02:32;33.00;36.90
38514;DHT22;24282;48.400;10.808;2023-08-20T13:04:58;33.10;37.90
38514;DHT22;24282;48.400;10.808;2023-08-20T13:07:24;33.10;39.80
38514;DHT22;24282;48.400;10.808;2023-08-20T13:09:50;33.10;40.80
38514;DHT22;24282;48.400;10.808;2023-08-20T13:12:18;33.10;42.30
38514;DHT22;24282;48.400;10.808;2023-08-20T13:14:44;33.10;43.00
38514;DHT22;24282;48.400;10.808;2023-08-20T13:17:10;33.10;42.30
38514;DHT22;24282;48.400;10.808;2023-08-20T13:19:36;33.20;43.70
38514;DHT22;24282;48.400;10.808;2023-08-20T13:22:02;33.10;40.40
38514;DHT22;24282;48.400;10.808;2023-08-20T13:24:28;33.20;37.90
38514;DHT22;24282;48.400;10.808;2023-08-20T13:26:53;33.20;38.90
38514;DHT22;24282;48.400;10.808;2023-08-20T13:29:19;33.30;40.90
38514;DHT22;24282;48.400;10.808;2023-08-20T13:31:45;33.30;41.60
38514;DHT22;24282;48.400;10.808;2023-08-20T13:34:10;33.30;41.40
38514;DHT22;24282;48.400;10.808;2023-08-20T13:36:36;33.30;40.80
38514;DHT22;24282;48.400;10.808;2023-08-20T13:39:02;33.40;39.80
38514;DHT22;24282;48.400;10.808;2023-08-20T13:41:28;33.40;38.50
38514;DHT22;24282;48.400;10.808;2023-08-20T13:43:54;33.50;38.10
38514;DHT22;24282;48.400;10.808;2023-08-20T13:46:19;33.50;39.90
38514;DHT22;24282;48.400;10.808;2023-08-20T13:48:46;33.60;39.80
38514;DHT22;24282;48.400;10.808;2023-08-20T13:51:12;33.60;38.20
38514;DHT22;24282;48.400;10.808;2023-08-20T13:53:37;33.60;38.90
38514;DHT22;24282;48.400;10.808;2023-08-20T13:56:03;33.60;40.40
38514;DHT22;24282;48.400;10.808;2023-08-20T13:58:29;33.70;36.40
38514;DHT22;24282;48.400;10.808;2023-08-20T14:00:54;33.70;36.80
38514;DHT22;24282;48.400;10.808;2023-08-20T14:03:20;33.80;37.20
38514;DHT22;24282;48.400;10.808;2023-08-20T14:05:46;33.80;38.10
38514;DHT22;24282;48.400;10.808;2023-08-20T14:08:11;33.80;37.80
38514;DHT22;24282;48.400;10.808;2023-08-20T14:10:37;33.90;36.40
38514;DHT22;24282;48.400;10.808;2023-08-20T14:13:03;33.90;36.20
38514;DHT22;24282;48.400;10.808;2023-08-20T14:15:29;33.90;37.30
38514;DHT22;24282;48.400;10.808;2023-08-20T14:17:54;34.00;38.00
38514;DHT22;24282;48.400;10.808;2023-08-20T14:20:20;33.90;38.10
38514;DHT22;24282;48.400;10.808;2023-08-20T14:22:46;34.00;38.10
38514;DHT22;24282;48.400;10.808;2023-08-20T14:25:11;34.00;37.60
38514;DHT22;24282;48.400;10.808;2023-08-20T14:27:37;34.10;37.40
38514;DHT22;24282;48.400;10.808;2023-08-20T14:30:05;34.10;37.20
38514;DHT22;24282;48.400;10.808;2023-08-20T14:32:31;34.00;37.20
38514;DHT22;24282;48.400;10.808;2023-08-20T14:34:57;34.00;37.00
38514;DHT22;24282;48.400;10.808;2023-08-20T14:37:22;34.00;35.70
38514;DHT22;24282;48.400;10.808;2023-08-20T14:39:49;34.00;36.20
38514;DHT22;24282;48.400;10.808;2023-08-20T14:42:15;34.10;36.50
38514;DHT22;24282;48.400;10.808;2023-08-20T14:44:41;34.10;37.20
38514;DHT22;24282;48.400;10.808;2023-08-20T14:47:06;34.20;36.40
38514;DHT22;24282;48.400;10.808;2023-08-20T14:49:32;34.20;35.70
38514;DHT22;24282;48.400;10.808;2023-08-20T14:51:58;34.20;35.30
38514;DHT22;24282;48.400;10.808;2023-08-20T14:54:25;34.30;35.10
38514;DHT22;24282;48.400;10.808;2023-08-20T14:56:51;34.30;35.60
38514;DHT22;24282;48.400;10.808;2023-08-20T14:59:16;34.30;34.80
38514;DHT22;24282;48.400;10.808;2023-08-20T15:01:42;34.30;34.60
38514;DHT22;24282;48.400;10.808;2023-08-20T15:04:08;34.30;35.90
38514;DHT22;24282;48.400;10.808;2023-08-20T15:06:33;34.30;34.90
38514;DHT22;24282;48.400;10.808;2023-08-20T15:08:59;34.30;35.10
38514;DHT22;24282;48.400;10.808;2023-08-20T15:11:25;34.30;36.10
38514;DHT22;24282;48.400;10.808;2023-08-20T15:13:50;34.30;35.70
38514;DHT22;24282;48.400;10.808;2023-08-20T15:16:17;34.30;36.20
38514;DHT22;24282;48.400;10.808;2023-08-20T15:18:43;34.20;35.80
38514;DHT22;24282;48.400;10.808;2023-08-20T15:21:08;34.20;36.20
38514;DHT22;24282;48.400;10.808;2023-08-20T15:23:36;34.10;37.60
38514;DHT22;24282;48.400;10.808;2023-08-20T15:26:03;34.00;38.10
38514;DHT22;24282;48.400;10.808;2023-08-20T15:28:29;33.90;39.10
38514;DHT22;24282;48.400;10.808;2023-08-20T15:30:56;33.80;39.10